sensor_id;sensor_type;location;lat;lon;timestamp;P1;durP1;ratioP1;P2;durP2;ratioP2
69434;SDS011;56625;54.322;18.582;2022-11-04T00:00:10;19.60;;;8.30;;
69434;SDS011;56625;54.322;18.582;2022-11-04T00:02:57;17.30;;;7.60;;
69434;SDS011;56625;54.322;18.582;2022-11-04T00:05:23;22.10;;;8.60;;
69434;SDS011;56625;54.322;18.582;2022-11-04T00:07:50;21.90;;;8.30;;
69434;SDS011;56625;54.322;18.582;2022-11-04T00:10:35;19.60;;;7.90;;
69434;SDS011;56625;54.322;18.582;2022-11-04T00:13:20;18.80;;;7.50;;
69434;SDS011;56625;54.322;18.582;2022-11-04T00:15:47;19.20;;;7.20;;
69434;SDS011;56625;54.322;18.582;2022-11-04T00:18:34;20.10;;;7.10;;
69434;SDS011;56625;54.322;18.582;2022-11-04T00:21:01;24.70;;;8.10;;
69434;SDS011;56625;54.322;18.582;2022-11-04T00:23:46;20.10;;;8.50;;
69434;SDS011;56625;54.322;18.582;2022-11-04T00:26:32;20.10;;;8.00;;
69434;SDS011;56625;54.322;18.582;2022-11-04T00:29:17;20.90;;;7.10;;
69434;SDS011;56625;54.322;18.582;2022-11-04T00:31:43;17.40;;;7.30;;
69434;SDS011;56625;54.322;18.582;2022-11-04T00:34:28;17.90;;;7.10;;
69434;SDS011;56625;54.322;18.582;2022-11-04T00:36:55;18.30;;;6.80;;
69434;SDS011;56625;54.322;18.582;2022-11-04T00:39:21;18.90;;;6.80;;
69434;SDS011;56625;54.322;18.582;2022-11-04T00:41:48;18.70;;;7.50;;
69434;SDS011;56625;54.322;18.582;2022-11-04T00:44:14;19.70;;;8.00;;
69434;SDS011;56625;54.322;18.582;2022-11-04T00:46:41;15.20;;;6.60;;
69434;SDS011;56625;54.322;18.582;2022-11-04T00:49:07;16.30;;;6.50;;
69434;SDS011;56625;54.322;18.582;2022-11-04T00:51:34;17.00;;;6.40;;
69434;SDS011;56625;54.322;18.582;2022-11-04T00:54:00;20.70;;;6.50;;
69434;SDS011;56625;54.322;18.582;2022-11-04T00:56:27;17.40;;;6.90;;
69434;SDS011;56625;54.322;18.582;2022-11-04T00:58:53;17.30;;;7.30;;
69434;SDS011;56625;54.322;18.582;2022-11-04T01:01:20;18.90;;;7.10;;
69434;SDS011;56625;54.322;18.582;2022-11-04T01:03:49;15.70;;;6.00;;
69434;SDS011;56625;54.322;18.582;2022-11-04T01:06:18;15.20;;;6.20;;
69434;SDS011;56625;54.322;18.582;2022-11-04T01:08:46;16.60;;;6.90;;
69434;SDS011;56625;54.322;18.582;2022-11-04T01:11:14;14.70;;;5.60;;
69434;SDS011;56625;54.322;18.582;2022-11-04T01:13:41;17.60;;;6.30;;
69434;SDS011;56625;54.322;18.582;2022-11-04T01:16:09;14.10;;;6.10;;
69434;SDS011;56625;54.322;18.582;2022-11-04T01:18:39;15.50;;;6.70;;
69434;SDS011;56625;54.322;18.582;2022-11-04T01:21:07;18.70;;;6.10;;
69434;SDS011;56625;54.322;18.582;2022-11-04T01:23:35;16.50;;;5.90;;
69434;SDS011;56625;54.322;18.582;2022-11-04T01:26:10;14.90;;;6.10;;
69434;SDS011;56625;54.322;18.582;2022-11-04T01:28:41;15.50;;;5.50;;
69434;SDS011;56625;54.322;18.582;2022-11-04T01:31:10;13.80;;;6.10;;
69434;SDS011;56625;54.322;18.582;2022-11-04T01:33:39;16.20;;;6.20;;
69434;SDS011;56625;54.322;18.582;2022-11-04T01:36:07;21.40;;;7.10;;
69434;SDS011;56625;54.322;18.582;2022-11-04T01:38:35;14.50;;;5.60;;
69434;SDS011;56625;54.322;18.582;2022-11-04T01:41:03;18.40;;;6.30;;
69434;SDS011;56625;54.322;18.582;2022-11-04T01:49:30;12.80;;;5.10;;
69434;SDS011;56625;54.322;18.582;2022-11-04T01:52:12;16.20;;;5.60;;
69434;SDS011;56625;54.322;18.582;2022-11-04T01:54:45;18.40;;;6.30;;
69434;SDS011;56625;54.322;18.582;2022-11-04T01:57:18;17.20;;;5.40;;
69434;SDS011;56625;54.322;18.582;2022-11-04T01:59:54;12.20;;;4.50;;
69434;SDS011;56625;54.322;18.582;2022-11-04T02:02:26;14.80;;;5.00;;
69434;SDS011;56625;54.322;18.582;2022-11-04T02:04:53;12.30;;;4.80;;
69434;SDS011;56625;54.322;18.582;2022-11-04T02:07:20;13.00;;;5.40;;
69434;SDS011;56625;54.322;18.582;2022-11-04T02:09:48;12.70;;;5.10;;
69434;SDS011;56625;54.322;18.582;2022-11-04T02:12:14;13.20;;;4.80;;
69434;SDS011;56625;54.322;18.582;2022-11-04T02:15:01;17.70;;;6.10;;
69434;SDS011;56625;54.322;18.582;2022-11-04T02:18:02;16.40;;;5.60;;
69434;SDS011;56625;54.322;18.582;2022-11-04T02:24:12;13.90;;;5.10;;
69434;SDS011;56625;54.322;18.582;2022-11-04T02:26:54;13.90;;;5.00;;
69434;SDS011;56625;54.322;18.582;2022-11-04T02:35:07;17.40;;;5.90;;
69434;SDS011;56625;54.322;18.582;2022-11-04T02:40:48;16.70;;;4.90;;
69434;SDS011;56625;54.322;18.582;2022-11-04T02:46:38;12.40;;;5.00;;
69434;SDS011;56625;54.322;18.582;2022-11-04T02:49:11;13.10;;;4.90;;
69434;SDS011;56625;54.322;18.582;2022-11-04T02:51:49;14.20;;;5.00;;
69434;SDS011;56625;54.322;18.582;2022-11-04T02:54:40;12.50;;;4.40;;
69434;SDS011;56625;54.322;18.582;2022-11-04T02:57:24;15.80;;;5.00;;
69434;SDS011;56625;54.322;18.582;2022-11-04T03:00:06;11.60;;;4.20;;
69434;SDS011;56625;54.322;18.582;2022-11-04T03:02:42;12.30;;;4.30;;
69434;SDS011;56625;54.322;18.582;2022-11-04T03:05:15;13.30;;;5.00;;
69434;SDS011;56625;54.322;18.582;2022-11-04T03:07:45;16.20;;;5.30;;
69434;SDS011;56625;54.322;18.582;2022-11-04T03:10:19;12.90;;;4.80;;
69434;SDS011;56625;54.322;18.582;2022-11-04T03:12:56;13.90;;;4.80;;
69434;SDS011;56625;54.322;18.582;2022-11-04T03:15:30;13.80;;;4.50;;
69434;SDS011;56625;54.322;18.582;2022-11-04T03:18:39;13.90;;;4.60;;
69434;SDS011;56625;54.322;18.582;2022-11-04T03:21:21;12.40;;;4.40;;
69434;SDS011;56625;54.322;18.582;2022-11-04T03:23:49;17.00;;;4.70;;
69434;SDS011;56625;54.322;18.582;2022-11-04T03:26:43;15.70;;;4.60;;
69434;SDS011;56625;54.322;18.582;2022-11-04T03:29:45;13.50;;;4.80;;
69434;SDS011;56625;54.322;18.582;2022-11-04T03:32:32;10.90;;;4.10;;
69434;SDS011;56625;54.322;18.582;2022-11-04T03:35:03;13.60;;;4.50;;
69434;SDS011;56625;54.322;18.582;2022-11-04T03:37:31;15.50;;;4.30;;
69434;SDS011;56625;54.322;18.582;2022-11-04T03:39:59;10.80;;;3.90;;
69434;SDS011;56625;54.322;18.582;2022-11-04T03:42:27;12.60;;;4.60;;
69434;SDS011;56625;54.322;18.582;2022-11-04T03:44:55;15.50;;;4.90;;
69434;SDS011;56625;54.322;18.582;2022-11-04T03:47:24;12.10;;;4.10;;
69434;SDS011;56625;54.322;18.582;2022-11-04T03:49:59;13.60;;;4.20;;
69434;SDS011;56625;54.322;18.582;2022-11-04T03:52:32;12.20;;;4.40;;
69434;SDS011;56625;54.322;18.582;2022-11-04T03:54:59;15.00;;;4.60;;
69434;SDS011;56625;54.322;18.582;2022-11-04T03:57:55;12.00;;;4.40;;
69434;SDS011;56625;54.322;18.582;2022-11-04T04:00:34;14.70;;;4.60;;
69434;SDS011;56625;54.322;18.582;2022-11-04T04:03:15;14.40;;;4.90;;
69434;SDS011;56625;54.322;18.582;2022-11-04T04:05:53;17.20;;;5.70;;
69434;SDS011;56625;54.322;18.582;2022-11-04T04:09:37;25.30;;;7.40;;
69434;SDS011;56625;54.322;18.582;2022-11-04T04:11:49;35.70;;;10.40;;
69434;SDS011;56625;54.322;18.582;2022-11-04T04:14:29;34.30;;;9.50;;
69434;SDS011;56625;54.322;18.582;2022-11-04T04:20:17;34.80;;;10.40;;
69434;SDS011;56625;54.322;18.582;2022-11-04T04:22:50;41.10;;;11.20;;
69434;SDS011;56625;54.322;18.582;2022-11-04T04:25:21;30.60;;;9.20;;
69434;SDS011;56625;54.322;18.582;2022-11-04T04:28:11;32.50;;;9.70;;
69434;SDS011;56625;54.322;18.582;2022-11-04T04:30:41;35.10;;;9.70;;
69434;SDS011;56625;54.322;18.582;2022-11-04T04:33:12;26.60;;;9.10;;
69434;SDS011;56625;54.322;18.582;2022-11-04T04:35:54;26.90;;;9.30;;
69434;SDS011;56625;54.322;18.582;2022-11-04T04:38:23;27.30;;;8.40;;
69434;SDS011;56625;54.322;18.582;2022-11-04T04:41:17;27.90;;;10.00;;
69434;SDS011;56625;54.322;18.582;2022-11-04T04:44:12;24.60;;;7.60;;
69434;SDS011;56625;54.322;18.582;2022-11-04T04:47:14;20.80;;;6.30;;
69434;SDS011;56625;54.322;18.582;2022-11-04T04:49:57;21.90;;;7.50;;
69434;SDS011;56625;54.322;18.582;2022-11-04T04:52:31;22.60;;;7.00;;
69434;SDS011;56625;54.322;18.582;2022-11-04T04:55:00;15.80;;;5.90;;
69434;SDS011;56625;54.322;18.582;2022-11-04T04:57:27;16.20;;;5.40;;
69434;SDS011;56625;54.322;18.582;2022-11-04T04:59:53;14.40;;;4.60;;
69434;SDS011;56625;54.322;18.582;2022-11-04T05:02:20;12.40;;;4.70;;
69434;SDS011;56625;54.322;18.582;2022-11-04T05:04:48;13.90;;;4.60;;
69434;SDS011;56625;54.322;18.582;2022-11-04T05:07:15;14.60;;;4.50;;
69434;SDS011;56625;54.322;18.582;2022-11-04T05:09:42;12.40;;;4.40;;
69434;SDS011;56625;54.322;18.582;2022-11-04T05:12:09;12.80;;;4.10;;
69434;SDS011;56625;54.322;18.582;2022-11-04T05:14:36;13.90;;;4.90;;
69434;SDS011;56625;54.322;18.582;2022-11-04T05:17:03;15.20;;;5.50;;
69434;SDS011;56625;54.322;18.582;2022-11-04T05:19:29;11.60;;;4.40;;
69434;SDS011;56625;54.322;18.582;2022-11-04T05:21:56;14.20;;;4.10;;
69434;SDS011;56625;54.322;18.582;2022-11-04T05:24:23;14.20;;;4.90;;
69434;SDS011;56625;54.322;18.582;2022-11-04T05:26:50;13.70;;;4.60;;
69434;SDS011;56625;54.322;18.582;2022-11-04T05:29:16;14.30;;;4.70;;
69434;SDS011;56625;54.322;18.582;2022-11-04T05:31:43;14.60;;;4.60;;
69434;SDS011;56625;54.322;18.582;2022-11-04T05:34:10;15.20;;;4.20;;
69434;SDS011;56625;54.322;18.582;2022-11-04T05:36:38;13.60;;;4.30;;
69434;SDS011;56625;54.322;18.582;2022-11-04T05:39:05;13.90;;;3.60;;
69434;SDS011;56625;54.322;18.582;2022-11-04T05:41:33;12.30;;;3.80;;
69434;SDS011;56625;54.322;18.582;2022-11-04T05:44:01;13.40;;;4.10;;
69434;SDS011;56625;54.322;18.582;2022-11-04T05:46:29;11.50;;;4.20;;
69434;SDS011;56625;54.322;18.582;2022-11-04T05:48:56;12.40;;;4.50;;
69434;SDS011;56625;54.322;18.582;2022-11-04T05:51:25;10.20;;;4.00;;
69434;SDS011;56625;54.322;18.582;2022-11-04T05:53:53;12.80;;;4.10;;
69434;SDS011;56625;54.322;18.582;2022-11-04T05:56:20;12.80;;;4.30;;
69434;SDS011;56625;54.322;18.582;2022-11-04T05:58:46;12.90;;;4.60;;
69434;SDS011;56625;54.322;18.582;2022-11-04T06:04:02;13.30;;;4.30;;
69434;SDS011;56625;54.322;18.582;2022-11-04T06:06:33;13.60;;;5.10;;
69434;SDS011;56625;54.322;18.582;2022-11-04T06:09:02;14.00;;;4.50;;
69434;SDS011;56625;54.322;18.582;2022-11-04T06:11:30;11.50;;;4.40;;
69434;SDS011;56625;54.322;18.582;2022-11-04T06:13:58;12.90;;;4.10;;
69434;SDS011;56625;54.322;18.582;2022-11-04T06:16:25;14.90;;;4.10;;
69434;SDS011;56625;54.322;18.582;2022-11-04T06:18:52;11.40;;;3.90;;
69434;SDS011;56625;54.322;18.582;2022-11-04T06:21:26;11.20;;;3.60;;
69434;SDS011;56625;54.322;18.582;2022-11-04T06:23:55;13.10;;;4.30;;
69434;SDS011;56625;54.322;18.582;2022-11-04T06:26:25;11.80;;;4.10;;
69434;SDS011;56625;54.322;18.582;2022-11-04T06:28:54;15.60;;;4.40;;
69434;SDS011;56625;54.322;18.582;2022-11-04T06:31:22;11.70;;;3.80;;
69434;SDS011;56625;54.322;18.582;2022-11-04T06:33:48;12.40;;;4.40;;
69434;SDS011;56625;54.322;18.582;2022-11-04T06:36:16;13.70;;;4.00;;
69434;SDS011;56625;54.322;18.582;2022-11-04T06:38:43;11.60;;;4.30;;
69434;SDS011;56625;54.322;18.582;2022-11-04T06:41:15;16.60;;;4.20;;
69434;SDS011;56625;54.322;18.582;2022-11-04T06:43:43;13.70;;;5.40;;
69434;SDS011;56625;54.322;18.582;2022-11-04T06:46:27;14.20;;;5.00;;
69434;SDS011;56625;54.322;18.582;2022-11-04T06:49:05;14.20;;;4.30;;
69434;SDS011;56625;54.322;18.582;2022-11-04T06:51:34;15.30;;;4.40;;
69434;SDS011;56625;54.322;18.582;2022-11-04T06:54:01;15.00;;;4.90;;
69434;SDS011;56625;54.322;18.582;2022-11-04T06:56:27;14.80;;;4.40;;
69434;SDS011;56625;54.322;18.582;2022-11-04T06:58:54;14.90;;;5.10;;
69434;SDS011;56625;54.322;18.582;2022-11-04T07:01:25;13.80;;;4.50;;
69434;SDS011;56625;54.322;18.582;2022-11-04T07:03:55;13.00;;;4.90;;
69434;SDS011;56625;54.322;18.582;2022-11-04T07:06:24;14.20;;;4.90;;
69434;SDS011;56625;54.322;18.582;2022-11-04T07:08:52;15.00;;;4.80;;
69434;SDS011;56625;54.322;18.582;2022-11-04T07:11:20;12.80;;;4.60;;
69434;SDS011;56625;54.322;18.582;2022-11-04T07:13:48;12.40;;;4.40;;
69434;SDS011;56625;54.322;18.582;2022-11-04T07:16:15;13.60;;;4.50;;
69434;SDS011;56625;54.322;18.582;2022-11-04T07:18:43;12.80;;;5.00;;
69434;SDS011;56625;54.322;18.582;2022-11-04T07:21:11;12.70;;;4.90;;
69434;SDS011;56625;54.322;18.582;2022-11-04T07:23:38;17.30;;;5.30;;
69434;SDS011;56625;54.322;18.582;2022-11-04T07:26:06;14.90;;;5.30;;
69434;SDS011;56625;54.322;18.582;2022-11-04T07:28:34;16.60;;;5.60;;
69434;SDS011;56625;54.322;18.582;2022-11-04T07:31:03;13.50;;;4.60;;
69434;SDS011;56625;54.322;18.582;2022-11-04T07:33:34;14.00;;;4.90;;
69434;SDS011;56625;54.322;18.582;2022-11-04T07:36:06;14.10;;;4.40;;
69434;SDS011;56625;54.322;18.582;2022-11-04T07:38:36;14.90;;;5.20;;
69434;SDS011;56625;54.322;18.582;2022-11-04T07:41:03;10.80;;;4.40;;
69434;SDS011;56625;54.322;18.582;2022-11-04T07:43:30;11.40;;;4.80;;
69434;SDS011;56625;54.322;18.582;2022-11-04T07:46:02;14.50;;;4.60;;
69434;SDS011;56625;54.322;18.582;2022-11-04T07:48:31;12.60;;;4.80;;
69434;SDS011;56625;54.322;18.582;2022-11-04T07:50:58;12.00;;;4.50;;
69434;SDS011;56625;54.322;18.582;2022-11-04T07:53:27;13.30;;;4.20;;
69434;SDS011;56625;54.322;18.582;2022-11-04T07:55:56;14.30;;;5.00;;
69434;SDS011;56625;54.322;18.582;2022-11-04T07:58:23;13.50;;;4.80;;
69434;SDS011;56625;54.322;18.582;2022-11-04T08:00:57;13.70;;;4.90;;
69434;SDS011;56625;54.322;18.582;2022-11-04T08:03:28;11.20;;;5.00;;
69434;SDS011;56625;54.322;18.582;2022-11-04T08:05:56;12.10;;;4.70;;
69434;SDS011;56625;54.322;18.582;2022-11-04T08:08:25;14.90;;;4.80;;
69434;SDS011;56625;54.322;18.582;2022-11-04T08:11:04;12.60;;;4.90;;
69434;SDS011;56625;54.322;18.582;2022-11-04T08:13:34;14.50;;;5.00;;
69434;SDS011;56625;54.322;18.582;2022-11-04T08:16:04;13.60;;;5.50;;
69434;SDS011;56625;54.322;18.582;2022-11-04T08:18:35;11.90;;;4.70;;
69434;SDS011;56625;54.322;18.582;2022-11-04T08:21:02;14.40;;;5.20;;
69434;SDS011;56625;54.322;18.582;2022-11-04T08:23:30;13.10;;;4.10;;
69434;SDS011;56625;54.322;18.582;2022-11-04T08:25:58;13.80;;;5.10;;
69434;SDS011;56625;54.322;18.582;2022-11-04T08:28:25;12.90;;;5.50;;
69434;SDS011;56625;54.322;18.582;2022-11-04T08:30:58;14.20;;;4.70;;
69434;SDS011;56625;54.322;18.582;2022-11-04T08:33:30;14.70;;;4.90;;
69434;SDS011;56625;54.322;18.582;2022-11-04T08:36:05;12.10;;;5.00;;
69434;SDS011;56625;54.322;18.582;2022-11-04T08:38:35;16.20;;;4.70;;
69434;SDS011;56625;54.322;18.582;2022-11-04T08:41:04;14.20;;;5.20;;
69434;SDS011;56625;54.322;18.582;2022-11-04T08:43:32;15.80;;;5.50;;
69434;SDS011;56625;54.322;18.582;2022-11-04T08:46:00;15.80;;;5.10;;
69434;SDS011;56625;54.322;18.582;2022-11-04T08:48:29;16.50;;;5.30;;
69434;SDS011;56625;54.322;18.582;2022-11-04T08:50:57;18.10;;;5.50;;
69434;SDS011;56625;54.322;18.582;2022-11-04T08:53:25;15.30;;;5.50;;
69434;SDS011;56625;54.322;18.582;2022-11-04T08:55:52;15.30;;;4.80;;
69434;SDS011;56625;54.322;18.582;2022-11-04T08:58:20;14.20;;;4.90;;
69434;SDS011;56625;54.322;18.582;2022-11-04T09:00:49;12.10;;;4.80;;
69434;SDS011;56625;54.322;18.582;2022-11-04T09:03:16;14.00;;;5.20;;
69434;SDS011;56625;54.322;18.582;2022-11-04T09:05:43;13.70;;;5.30;;
69434;SDS011;56625;54.322;18.582;2022-11-04T09:08:13;13.50;;;5.10;;
69434;SDS011;56625;54.322;18.582;2022-11-04T09:10:46;12.40;;;4.10;;
69434;SDS011;56625;54.322;18.582;2022-11-04T09:13:14;12.60;;;4.80;;
69434;SDS011;56625;54.322;18.582;2022-11-04T09:15:42;14.20;;;5.00;;
69434;SDS011;56625;54.322;18.582;2022-11-04T09:18:09;10.70;;;3.10;;
69434;SDS011;56625;54.322;18.582;2022-11-04T09:20:36;15.20;;;5.00;;
69434;SDS011;56625;54.322;18.582;2022-11-04T09:23:04;13.50;;;4.60;;
69434;SDS011;56625;54.322;18.582;2022-11-04T09:25:32;13.50;;;5.00;;
69434;SDS011;56625;54.322;18.582;2022-11-04T09:27:59;11.90;;;4.80;;
69434;SDS011;56625;54.322;18.582;2022-11-04T09:30:26;16.10;;;5.60;;
69434;SDS011;56625;54.322;18.582;2022-11-04T09:32:53;11.20;;;4.60;;
69434;SDS011;56625;54.322;18.582;2022-11-04T09:35:19;11.60;;;3.20;;
69434;SDS011;56625;54.322;18.582;2022-11-04T09:37:46;11.40;;;4.60;;
69434;SDS011;56625;54.322;18.582;2022-11-04T09:40:16;7.00;;;2.50;;
69434;SDS011;56625;54.322;18.582;2022-11-04T09:43:57;11.90;;;4.80;;
69434;SDS011;56625;54.322;18.582;2022-11-04T09:46:03;11.60;;;3.60;;
69434;SDS011;56625;54.322;18.582;2022-11-04T09:48:50;12.10;;;4.50;;
69434;SDS011;56625;54.322;18.582;2022-11-04T09:51:22;12.90;;;4.50;;
69434;SDS011;56625;54.322;18.582;2022-11-04T09:54:21;10.20;;;4.20;;
69434;SDS011;56625;54.322;18.582;2022-11-04T09:56:51;10.70;;;4.20;;
69434;SDS011;56625;54.322;18.582;2022-11-04T09:59:30;14.00;;;4.50;;
69434;SDS011;56625;54.322;18.582;2022-11-04T10:07:49;11.90;;;3.70;;
69434;SDS011;56625;54.322;18.582;2022-11-04T10:10:41;10.20;;;3.90;;
69434;SDS011;56625;54.322;18.582;2022-11-04T10:17:11;14.20;;;4.80;;
69434;SDS011;56625;54.322;18.582;2022-11-04T10:28:46;11.50;;;4.20;;
69434;SDS011;56625;54.322;18.582;2022-11-04T10:31:18;9.30;;;3.50;;
69434;SDS011;56625;54.322;18.582;2022-11-04T10:33:58;11.10;;;3.90;;
69434;SDS011;56625;54.322;18.582;2022-11-04T10:36:31;13.40;;;4.50;;
69434;SDS011;56625;54.322;18.582;2022-11-04T10:39:02;12.50;;;4.90;;
69434;SDS011;56625;54.322;18.582;2022-11-04T10:41:39;11.90;;;4.80;;
69434;SDS011;56625;54.322;18.582;2022-11-04T10:44:07;13.30;;;5.00;;
69434;SDS011;56625;54.322;18.582;2022-11-04T10:53:16;12.80;;;4.30;;
69434;SDS011;56625;54.322;18.582;2022-11-04T10:55:56;9.40;;;3.60;;
69434;SDS011;56625;54.322;18.582;2022-11-04T10:58:31;13.40;;;4.70;;
69434;SDS011;56625;54.322;18.582;2022-11-04T11:01:26;14.40;;;5.30;;
69434;SDS011;56625;54.322;18.582;2022-11-04T11:03:55;11.60;;;5.10;;
69434;SDS011;56625;54.322;18.582;2022-11-04T11:06:26;12.90;;;5.20;;
69434;SDS011;56625;54.322;18.582;2022-11-04T11:09:22;12.60;;;4.90;;
69434;SDS011;56625;54.322;18.582;2022-11-04T11:11:57;11.90;;;3.90;;
69434;SDS011;56625;54.322;18.582;2022-11-04T11:17:19;10.80;;;4.00;;
69434;SDS011;56625;54.322;18.582;2022-11-04T11:19:59;13.90;;;5.00;;
69434;SDS011;56625;54.322;18.582;2022-11-04T11:22:39;13.00;;;5.20;;
69434;SDS011;56625;54.322;18.582;2022-11-04T11:25:31;13.70;;;5.40;;
69434;SDS011;56625;54.322;18.582;2022-11-04T11:33:30;15.40;;;5.40;;
69434;SDS011;56625;54.322;18.582;2022-11-04T11:41:49;13.70;;;4.90;;
69434;SDS011;56625;54.322;18.582;2022-11-04T11:44:44;15.60;;;5.60;;
69434;SDS011;56625;54.322;18.582;2022-11-04T11:47:33;13.00;;;5.20;;
69434;SDS011;56625;54.322;18.582;2022-11-04T11:52:49;12.20;;;5.10;;
69434;SDS011;56625;54.322;18.582;2022-11-04T11:55:31;13.60;;;4.70;;
69434;SDS011;56625;54.322;18.582;2022-11-04T12:01:39;13.30;;;4.90;;
69434;SDS011;56625;54.322;18.582;2022-11-04T12:04:12;14.50;;;5.50;;
69434;SDS011;56625;54.322;18.582;2022-11-04T12:07:12;13.90;;;5.40;;
69434;SDS011;56625;54.322;18.582;2022-11-04T12:10:35;12.70;;;5.20;;
69434;SDS011;56625;54.322;18.582;2022-11-04T12:13:30;13.10;;;5.30;;
69434;SDS011;56625;54.322;18.582;2022-11-04T12:31:17;12.30;;;6.00;;
69434;SDS011;56625;54.322;18.582;2022-11-04T12:34:10;15.00;;;5.90;;
69434;SDS011;56625;54.322;18.582;2022-11-04T12:43:16;12.20;;;5.40;;
69434;SDS011;56625;54.322;18.582;2022-11-04T12:46:21;13.80;;;4.60;;
69434;SDS011;56625;54.322;18.582;2022-11-04T13:01:57;13.20;;;4.60;;
69434;SDS011;56625;54.322;18.582;2022-11-04T13:04:46;13.70;;;4.80;;
69434;SDS011;56625;54.322;18.582;2022-11-04T13:07:32;7.30;;;2.40;;
69434;SDS011;56625;54.322;18.582;2022-11-04T13:10:15;13.10;;;4.90;;
69434;SDS011;56625;54.322;18.582;2022-11-04T13:12:48;14.30;;;5.20;;
69434;SDS011;56625;54.322;18.582;2022-11-04T13:15:22;11.80;;;4.80;;
69434;SDS011;56625;54.322;18.582;2022-11-04T13:18:04;12.10;;;4.70;;
69434;SDS011;56625;54.322;18.582;2022-11-04T13:20:40;13.40;;;4.30;;
69434;SDS011;56625;54.322;18.582;2022-11-04T13:23:22;11.50;;;4.90;;
69434;SDS011;56625;54.322;18.582;2022-11-04T13:25:54;13.60;;;5.30;;
69434;SDS011;56625;54.322;18.582;2022-11-04T13:28:22;12.40;;;5.40;;
69434;SDS011;56625;54.322;18.582;2022-11-04T13:31:19;15.40;;;5.40;;
69434;SDS011;56625;54.322;18.582;2022-11-04T13:40:14;11.00;;;4.70;;
69434;SDS011;56625;54.322;18.582;2022-11-04T13:49:06;13.30;;;5.60;;
69434;SDS011;56625;54.322;18.582;2022-11-04T13:51:47;16.10;;;6.00;;
69434;SDS011;56625;54.322;18.582;2022-11-04T13:57:05;15.20;;;5.90;;
69434;SDS011;56625;54.322;18.582;2022-11-04T13:59:35;12.90;;;4.70;;
69434;SDS011;56625;54.322;18.582;2022-11-04T14:04:42;13.30;;;5.90;;
69434;SDS011;56625;54.322;18.582;2022-11-04T14:07:12;13.50;;;5.70;;
69434;SDS011;56625;54.322;18.582;2022-11-04T14:14:37;12.00;;;5.70;;
69434;SDS011;56625;54.322;18.582;2022-11-04T14:20:21;14.20;;;6.10;;
69434;SDS011;56625;54.322;18.582;2022-11-04T14:22:52;14.70;;;6.30;;
69434;SDS011;56625;54.322;18.582;2022-11-04T14:25:32;15.10;;;6.30;;
69434;SDS011;56625;54.322;18.582;2022-11-04T14:30:41;14.60;;;6.30;;
69434;SDS011;56625;54.322;18.582;2022-11-04T14:36:22;14.70;;;6.50;;
69434;SDS011;56625;54.322;18.582;2022-11-04T14:46:46;14.90;;;6.70;;
69434;SDS011;56625;54.322;18.582;2022-11-04T14:49:59;14.70;;;6.30;;
69434;SDS011;56625;54.322;18.582;2022-11-04T14:52:34;14.60;;;6.90;;
69434;SDS011;56625;54.322;18.582;2022-11-04T14:55:16;14.70;;;6.20;;
69434;SDS011;56625;54.322;18.582;2022-11-04T14:58:22;16.00;;;5.70;;
69434;SDS011;56625;54.322;18.582;2022-11-04T15:00:54;19.60;;;6.90;;
69434;SDS011;56625;54.322;18.582;2022-11-04T15:03:27;16.60;;;6.80;;
69434;SDS011;56625;54.322;18.582;2022-11-04T15:06:27;15.20;;;6.70;;
69434;SDS011;56625;54.322;18.582;2022-11-04T15:12:12;17.20;;;8.20;;
69434;SDS011;56625;54.322;18.582;2022-11-04T15:14:58;17.90;;;8.30;;
69434;SDS011;56625;54.322;18.582;2022-11-04T15:17:28;22.60;;;9.80;;
69434;SDS011;56625;54.322;18.582;2022-11-04T15:19:59;26.10;;;13.50;;
69434;SDS011;56625;54.322;18.582;2022-11-04T15:22:29;30.80;;;16.20;;
69434;SDS011;56625;54.322;18.582;2022-11-04T15:25:00;26.50;;;14.20;;
69434;SDS011;56625;54.322;18.582;2022-11-04T15:27:31;23.90;;;12.50;;
69434;SDS011;56625;54.322;18.582;2022-11-04T15:30:00;26.10;;;14.90;;
69434;SDS011;56625;54.322;18.582;2022-11-04T15:32:29;24.40;;;13.70;;
69434;SDS011;56625;54.322;18.582;2022-11-04T15:34:56;25.50;;;11.80;;
69434;SDS011;56625;54.322;18.582;2022-11-04T15:37:24;22.30;;;11.60;;
69434;SDS011;56625;54.322;18.582;2022-11-04T15:39:55;21.70;;;11.50;;
69434;SDS011;56625;54.322;18.582;2022-11-04T15:42:26;20.00;;;10.00;;
69434;SDS011;56625;54.322;18.582;2022-11-04T15:45:32;21.90;;;12.10;;
69434;SDS011;56625;54.322;18.582;2022-11-04T15:53:54;20.40;;;9.00;;
69434;SDS011;56625;54.322;18.582;2022-11-04T15:56:28;19.50;;;10.20;;
69434;SDS011;56625;54.322;18.582;2022-11-04T15:58:58;22.90;;;10.90;;
69434;SDS011;56625;54.322;18.582;2022-11-04T16:01:26;18.00;;;9.10;;
69434;SDS011;56625;54.322;18.582;2022-11-04T16:03:56;21.20;;;9.30;;
69434;SDS011;56625;54.322;18.582;2022-11-04T16:06:37;18.70;;;8.70;;
69434;SDS011;56625;54.322;18.582;2022-11-04T16:09:19;16.40;;;7.70;;
69434;SDS011;56625;54.322;18.582;2022-11-04T16:14:54;16.10;;;8.10;;
69434;SDS011;56625;54.322;18.582;2022-11-04T16:17:23;16.00;;;6.90;;
69434;SDS011;56625;54.322;18.582;2022-11-04T16:19:53;18.80;;;7.90;;
69434;SDS011;56625;54.322;18.582;2022-11-04T16:22:30;15.90;;;7.40;;
69434;SDS011;56625;54.322;18.582;2022-11-04T16:25:00;15.80;;;7.40;;
69434;SDS011;56625;54.322;18.582;2022-11-04T16:27:31;16.00;;;7.30;;
69434;SDS011;56625;54.322;18.582;2022-11-04T16:32:47;15.40;;;6.80;;
69434;SDS011;56625;54.322;18.582;2022-11-04T16:35:19;16.00;;;8.00;;
69434;SDS011;56625;54.322;18.582;2022-11-04T16:37:51;16.70;;;7.90;;
69434;SDS011;56625;54.322;18.582;2022-11-04T16:40:19;16.90;;;7.00;;
69434;SDS011;56625;54.322;18.582;2022-11-04T16:42:48;17.30;;;7.50;;
69434;SDS011;56625;54.322;18.582;2022-11-04T16:45:25;17.90;;;6.90;;
69434;SDS011;56625;54.322;18.582;2022-11-04T16:47:56;16.70;;;7.20;;
69434;SDS011;56625;54.322;18.582;2022-11-04T16:50:24;17.70;;;6.80;;
69434;SDS011;56625;54.322;18.582;2022-11-04T16:52:52;15.50;;;6.90;;
69434;SDS011;56625;54.322;18.582;2022-11-04T16:55:19;15.90;;;7.40;;
69434;SDS011;56625;54.322;18.582;2022-11-04T16:57:58;16.40;;;7.40;;
69434;SDS011;56625;54.322;18.582;2022-11-04T17:00:28;14.80;;;6.60;;
69434;SDS011;56625;54.322;18.582;2022-11-04T17:02:59;14.50;;;5.90;;
69434;SDS011;56625;54.322;18.582;2022-11-04T17:05:27;13.30;;;5.60;;
69434;SDS011;56625;54.322;18.582;2022-11-04T17:07:53;12.40;;;5.20;;
69434;SDS011;56625;54.322;18.582;2022-11-04T17:10:29;13.00;;;4.90;;
69434;SDS011;56625;54.322;18.582;2022-11-04T17:12:55;16.00;;;5.70;;
69434;SDS011;56625;54.322;18.582;2022-11-04T17:15:22;12.90;;;5.60;;
69434;SDS011;56625;54.322;18.582;2022-11-04T17:17:48;13.30;;;5.50;;
69434;SDS011;56625;54.322;18.582;2022-11-04T17:20:16;12.20;;;5.00;;
69434;SDS011;56625;54.322;18.582;2022-11-04T17:22:44;11.20;;;4.70;;
69434;SDS011;56625;54.322;18.582;2022-11-04T17:25:23;13.40;;;5.20;;
69434;SDS011;56625;54.322;18.582;2022-11-04T17:27:52;13.40;;;5.60;;
69434;SDS011;56625;54.322;18.582;2022-11-04T17:30:20;17.00;;;5.60;;
69434;SDS011;56625;54.322;18.582;2022-11-04T17:32:48;13.00;;;5.00;;
69434;SDS011;56625;54.322;18.582;2022-11-04T17:35:16;13.10;;;5.20;;
69434;SDS011;56625;54.322;18.582;2022-11-04T17:37:43;12.30;;;5.40;;
69434;SDS011;56625;54.322;18.582;2022-11-04T17:40:15;15.10;;;5.50;;